Aviation Digital Data Service (ADDS)

Output produced by METARs form (1356 UTC 27 June 2017)
found at http://aviationweather.gov/adds/metars/
 
KPHL 271128Z 2712/2818 VRB03KT P6SM SCT060 BKN150 
     FM271400 26006KT P6SM SCT070 
     FM271800 25012KT P6SM BKN070 
     FM272200 26010KT P6SM SCT060 
     FM280200 29006KT P6SM SCT250